Time;durP1;ratioP1;P1;durP2;ratioP2;P2;SDS_P1;SDS_P2;PMS_P1;PMS_P2;Temp;Humidity;BMP_temperature;BMP_pressure;BME280_temperature;BME280_humidity;BME280_pressure;Samples;Min_cycle;Max_cycle;Signal;HPM_P1;HPM_P2
2023/03/15 00:00:59;;;;;;;14.37;2.80;;;5.30;99.90;;;;;;5046900;23;20159;-90
2023/03/15 00:03:03;;;;;;;13.03;2.70;;;5.20;99.90;;;;;;5059207;23;20201;-90
2023/03/15 00:05:04;;;;;;;16.30;2.70;;;5.40;99.90;;;;;;5051285;23;20186;-93
2023/03/15 00:07:05;;;;;;;13.03;3.10;;;5.70;99.90;;;;;;5074922;23;20154;-92
2023/03/15 00:09:06;;;;;;;17.77;2.83;;;5.40;99.90;;;;;;5050463;23;20178;-96
2023/03/15 00:11:06;;;;;;;13.67;2.47;;;5.40;99.90;;;;;;5052856;23;20150;-96
2023/03/15 00:13:08;;;;;;;8.40;2.53;;;5.40;99.90;;;;;;5075386;23;20478;-92
2023/03/15 00:15:11;;;;;;;14.13;2.67;;;5.50;99.90;;;;;;5048876;23;20197;-91
2023/03/15 00:17:12;;;;;;;10.63;2.47;;;5.50;99.90;;;;;;5048514;23;20158;-91
2023/03/15 00:19:13;;;;;;;12.73;2.47;;;5.50;99.90;;;;;;5049359;23;20189;-92
2023/03/15 00:21:14;;;;;;;10.90;2.20;;;5.40;99.90;;;;;;5050992;23;20147;-96
2023/03/15 00:23:16;;;;;;;7.23;2.30;;;5.20;99.90;;;;;;5050577;23;20165;-91
2023/03/15 00:25:16;;;;;;;15.53;2.50;;;5.20;99.90;;;;;;5073497;23;20157;-91
2023/03/15 00:27:17;;;;;;;9.70;2.87;;;5.20;99.90;;;;;;5072749;23;20162;-91
2023/03/15 00:29:18;;;;;;;11.67;2.53;;;5.40;99.90;;;;;;5049680;23;20652;-96
2023/03/15 00:31:22;;;;;;;12.43;2.53;;;5.60;99.90;;;;;;5073851;23;20161;-92
2023/03/15 00:33:24;;;;;;;10.17;2.47;;;5.80;99.90;;;;;;5049227;23;20244;-95
2023/03/15 00:35:25;;;;;;;9.23;2.40;;;5.60;99.90;;;;;;5049600;23;20161;-90
2023/03/15 00:37:29;;;;;;;10.07;1.90;;;5.80;99.90;;;;;;5047558;23;20150;-91
2023/03/15 00:39:29;;;;;;;5.17;1.30;;;5.80;99.90;;;;;;5051491;23;20178;-90
2023/03/15 00:41:31;;;;;;;7.17;1.60;;;5.70;99.90;;;;;;5051887;23;20181;-91
2023/03/15 00:43:32;;;;;;;7.10;1.30;;;5.50;99.90;;;;;;5051073;23;20210;-90
2023/03/15 00:45:33;;;;;;;3.87;0.90;;;5.50;99.90;;;;;;5051245;23;20154;-91
2023/03/15 00:47:33;;;;;;;3.03;0.60;;;5.60;99.90;;;;;;5075497;23;20185;-90
2023/03/15 00:49:34;;;;;;;3.93;0.73;;;5.70;99.90;;;;;;5054194;23;20189;-94
2023/03/15 00:51:36;;;;;;;3.23;0.60;;;5.50;99.90;;;;;;5054217;23;20163;-91
2023/03/15 00:53:39;;;;;;;4.40;0.80;;;5.60;99.90;;;;;;5058377;23;20166;-95
2023/03/15 00:55:41;;;;;;;3.13;0.70;;;5.40;99.90;;;;;;5082613;23;20163;-91
2023/03/15 00:57:58;;;;;;;1.93;0.40;;;5.20;99.90;;;;;;5105320;23;20524;-92
2023/03/15 00:59:58;;;;;;;2.80;0.50;;;5.10;99.90;;;;;;5053895;23;20210;-92
2023/03/15 01:02:03;;;;;;;2.20;0.70;;;5.00;99.90;;;;;;5057150;23;20168;-93
2023/03/15 01:04:03;;;;;;;5.23;0.70;;;4.90;99.90;;;;;;5079928;23;20157;-93
2023/03/15 01:06:16;;;;;;;2.87;0.70;;;4.90;99.90;;;;;;5079782;23;20209;-92
2023/03/15 01:08:17;;;;;;;3.33;0.90;;;4.80;99.90;;;;;;5059061;23;20150;-92
2023/03/15 01:10:19;;;;;;;2.63;0.70;;;4.70;99.90;;;;;;5056644;23;20182;-93
2023/03/15 01:12:33;;;;;;;5.17;0.90;;;4.60;99.90;;;;;;5079102;23;20224;-93
2023/03/15 01:14:36;;;;;;;7.10;1.10;;;4.70;99.90;;;;;;5056436;23;20189;-93
2023/03/15 01:16:36;;;;;;;4.67;1.00;;;4.90;99.90;;;;;;5081161;23;20154;-93
2023/03/15 01:18:37;;;;;;;4.20;1.20;;;5.00;99.90;;;;;;5055509;23;20593;-92
2023/03/15 01:20:42;;;;;;;5.47;1.27;;;5.10;99.90;;;;;;5051728;23;20175;-91
2023/03/15 01:22:43;;;;;;;3.90;1.27;;;5.00;99.90;;;;;;5055295;23;20185;-93
2023/03/15 01:24:44;;;;;;;4.70;1.17;;;4.90;99.90;;;;;;5052834;23;20154;-92
2023/03/15 01:26:48;;;;;;;3.40;1.33;;;4.90;99.90;;;;;;5051342;23;20178;-93
2023/03/15 01:29:10;;;;;;;5.53;1.13;;;4.80;99.90;;;;;;5055064;23;20225;-93
2023/03/15 01:31:30;;;;;;;9.70;1.50;;;4.90;99.90;;;;;;5054951;23;20157;-93
2023/03/15 01:33:34;;;;;;;6.73;1.20;;;5.00;99.90;;;;;;5052135;23;20190;-93
2023/03/15 01:35:35;;;;;;;7.20;1.10;;;5.00;99.90;;;;;;5055613;23;20146;-93
2023/03/15 01:37:36;;;;;;;6.27;1.00;;;5.00;99.90;;;;;;5077981;23;20173;-92
2023/03/15 01:39:37;;;;;;;7.50;1.30;;;5.10;99.90;;;;;;5055455;23;20182;-92
2023/03/15 01:41:38;;;;;;;7.20;1.63;;;5.20;99.90;;;;;;5053829;23;20162;-92
2023/03/15 01:43:45;;;;;;;6.10;1.57;;;5.30;99.90;;;;;;5054880;23;20574;-92
2023/03/15 01:46:15;;;;;;;7.03;1.37;;;5.30;99.90;;;;;;5077930;23;20716;-92
2023/03/15 01:48:20;;;;;;;6.40;1.80;;;5.30;99.90;;;;;;5057108;23;20166;-92
2023/03/15 01:50:24;;;;;;;6.17;1.50;;;5.40;99.90;;;;;;5055543;23;20139;-90
2023/03/15 01:52:34;;;;;;;4.17;1.50;;;5.30;99.90;;;;;;5055010;23;20150;-90
2023/03/15 01:54:40;;;;;;;12.67;2.73;;;5.30;99.90;;;;;;5075631;23;20197;-89
2023/03/15 01:56:52;;;;;;;5.90;1.70;;;5.30;99.90;;;;;;5057479;23;20142;-93
2023/03/15 01:58:56;;;;;;;9.07;1.50;;;5.30;99.90;;;;;;5057392;23;20294;-93
2023/03/15 02:00:57;;;;;;;7.47;1.70;;;5.30;99.90;;;;;;5055252;23;20719;-88
2023/03/15 02:03:08;;;;;;;7.57;1.80;;;5.30;99.90;;;;;;5057492;23;20170;-89
2023/03/15 02:05:14;;;;;;;5.90;1.70;;;5.40;99.90;;;;;;5053827;23;20167;-90
2023/03/15 02:07:16;;;;;;;6.63;2.00;;;5.40;99.90;;;;;;5055386;23;20176;-90
2023/03/15 02:09:18;;;;;;;7.13;2.37;;;5.40;99.90;;;;;;5077627;23;20727;-89
2023/03/15 02:11:23;;;;;;;8.73;2.00;;;5.50;99.90;;;;;;5052326;23;20210;-89
2023/03/15 02:13:35;;;;;;;5.73;2.00;;;5.50;99.90;;;;;;5054352;23;20504;-90
2023/03/15 02:15:56;;;;;;;6.93;2.20;;;5.30;99.90;;;;;;5082163;23;20512;-92
2023/03/15 02:18:02;;;;;;;8.03;2.20;;;5.30;99.90;;;;;;5055629;23;20194;-92
2023/03/15 02:20:26;;;;;;;9.20;2.57;;;5.50;99.90;;;;;;5054576;23;20287;-92
2023/03/15 02:22:54;;;;;;;9.63;2.23;;;5.70;99.90;;;;;;5078886;23;20181;-92
2023/03/15 02:25:14;;;;;;;9.20;2.20;;;5.60;99.90;;;;;;5066741;23;20269;-93
2023/03/15 02:27:24;;;;;;;7.00;2.67;;;5.70;99.90;;;;;;5053650;23;20209;-92
2023/03/15 02:29:43;;;;;;;9.67;2.50;;;5.60;99.90;;;;;;5084314;23;20180;-92
2023/03/15 02:31:44;;;;;;;5.63;2.60;;;5.60;99.90;;;;;;5054841;23;20182;-92
2023/03/15 02:34:15;;;;;;;6.97;2.23;;;5.60;99.90;;;;;;5056636;23;20202;-93
2023/03/15 02:36:28;;;;;;;5.77;2.40;;;5.90;99.90;;;;;;5080470;23;20146;-92
2023/03/15 02:38:29;;;;;;;8.63;2.57;;;5.70;99.90;;;;;;5054979;23;20153;-92
2023/03/15 02:40:30;;;;;;;7.90;2.77;;;5.60;99.90;;;;;;5055605;23;20158;-93
2023/03/15 02:42:30;;;;;;;9.70;2.73;;;5.70;99.90;;;;;;5053442;23;20166;-92
2023/03/15 02:44:34;;;;;;;8.30;2.70;;;5.60;99.90;;;;;;5058627;23;20146;-93
2023/03/15 02:46:44;;;;;;;9.07;2.60;;;5.40;99.90;;;;;;5056845;23;20162;-92
2023/03/15 02:49:06;;;;;;;9.80;2.43;;;5.40;99.90;;;;;;5082996;23;20177;-93
2023/03/15 02:51:18;;;;;;;8.07;2.87;;;5.10;99.90;;;;;;5079971;23;20164;-92
2023/03/15 02:53:18;;;;;;;6.53;2.40;;;5.10;99.90;;;;;;5054725;23;20154;-89
2023/03/15 02:55:20;;;;;;;9.13;2.50;;;5.10;99.90;;;;;;5053751;23;20594;-89
2023/03/15 02:57:21;;;;;;;8.33;2.67;;;5.20;99.90;;;;;;5055393;23;20151;-89
2023/03/15 02:59:23;;;;;;;8.00;2.50;;;5.10;99.90;;;;;;5054168;23;20641;-93
2023/03/15 03:01:23;;;;;;;8.23;2.70;;;5.10;99.90;;;;;;5079658;23;20164;-91
2023/03/15 03:03:24;;;;;;;9.63;2.20;;;5.20;99.90;;;;;;5078339;23;20205;-93
2023/03/15 03:05:25;;;;;;;8.47;2.63;;;5.30;99.90;;;;;;5053575;23;20173;-94
2023/03/15 03:07:26;;;;;;;6.67;2.57;;;5.40;99.90;;;;;;5056782;23;20161;-94
2023/03/15 03:09:33;;;;;;;9.60;2.50;;;5.50;99.90;;;;;;5078416;23;20160;-90
2023/03/15 03:11:34;;;;;;;6.03;2.27;;;5.40;99.90;;;;;;5051489;23;20158;-89
2023/03/15 03:13:35;;;;;;;8.20;2.67;;;5.30;99.90;;;;;;5077426;23;20160;-92
2023/03/15 03:15:38;;;;;;;9.77;3.10;;;5.20;99.90;;;;;;5054403;23;20139;-90
2023/03/15 03:17:39;;;;;;;7.90;2.80;;;5.10;99.90;;;;;;5055097;23;20163;-89
2023/03/15 03:19:40;;;;;;;8.23;2.80;;;5.00;99.90;;;;;;5055611;23;20190;-90
2023/03/15 03:21:42;;;;;;;9.23;3.57;;;5.20;99.90;;;;;;5057018;23;20186;-89
2023/03/15 03:23:47;;;;;;;9.33;3.30;;;5.20;99.90;;;;;;5051969;23;20155;-90
2023/03/15 03:25:48;;;;;;;7.37;3.50;;;5.30;99.90;;;;;;5050508;23;20154;-89
2023/03/15 03:27:49;;;;;;;5.07;3.27;;;5.30;99.90;;;;;;5052680;23;20590;-89
2023/03/15 03:29:50;;;;;;;6.67;3.10;;;5.30;99.90;;;;;;5053210;23;20573;-90
2023/03/15 03:31:51;;;;;;;8.63;3.90;;;5.30;99.90;;;;;;5054366;23;20186;-90
2023/03/15 03:33:55;;;;;;;10.70;3.50;;;5.40;99.90;;;;;;5049760;23;20186;-95
2023/03/15 03:36:03;;;;;;;10.40;3.27;;;5.40;99.90;;;;;;5049559;23;20160;-89
2023/03/15 03:38:04;;;;;;;5.53;3.30;;;5.30;99.90;;;;;;5051804;23;20237;-89
2023/03/15 03:40:10;;;;;;;10.37;3.67;;;5.30;99.90;;;;;;5076152;23;20180;-93
2023/03/15 03:42:13;;;;;;;9.93;3.53;;;5.20;99.90;;;;;;5049610;23;20201;-90
2023/03/15 03:44:14;;;;;;;6.53;3.23;;;5.00;99.90;;;;;;5051266;23;20154;-90
2023/03/15 03:46:16;;;;;;;8.93;3.40;;;5.00;99.90;;;;;;5049111;23;20162;-91
2023/03/15 03:48:21;;;;;;;8.43;3.33;;;5.10;99.90;;;;;;5077963;23;20690;-90
2023/03/15 03:50:23;;;;;;;7.10;3.63;;;5.10;99.90;;;;;;5053040;23;20166;-89
2023/03/15 03:52:23;;;;;;;10.67;3.67;;;5.00;99.90;;;;;;5052604;23;20178;-91
2023/03/15 03:54:27;;;;;;;10.43;3.60;;;5.00;99.90;;;;;;5078625;23;20193;-94
2023/03/15 03:56:29;;;;;;;7.63;3.50;;;5.00;99.90;;;;;;5076833;23;20237;-93
2023/03/15 03:58:30;;;;;;;11.73;4.27;;;5.00;99.90;;;;;;5050047;23;20278;-90
2023/03/15 04:00:42;;;;;;;12.53;3.63;;;5.00;99.90;;;;;;5050857;23;20154;-91
2023/03/15 04:02:44;;;;;;;7.33;3.30;;;4.90;99.90;;;;;;5053566;23;20170;-94
2023/03/15 04:04:49;;;;;;;11.23;3.97;;;4.70;99.90;;;;;;5051477;23;20184;-89
2023/03/15 04:06:53;;;;;;;15.63;3.90;;;4.70;99.90;;;;;;5050380;23;20363;-94
2023/03/15 04:09:03;;;;;;;11.07;3.77;;;4.80;99.90;;;;;;5075970;23;20596;-93
2023/03/15 04:11:16;;;;;;;8.43;3.80;;;4.60;99.90;;;;;;5051851;23;20149;-89
2023/03/15 04:13:17;;;;;;;12.20;4.10;;;4.50;99.90;;;;;;5051455;23;20190;-89
2023/03/15 04:15:18;;;;;;;12.63;3.97;;;4.50;99.90;;;;;;5051027;23;20257;-92
2023/03/15 04:17:18;;;;;;;10.07;4.20;;;4.60;99.90;;;;;;5055252;23;20155;-89
2023/03/15 04:19:19;;;;;;;14.90;4.20;;;4.60;99.90;;;;;;5051716;23;20185;-90
2023/03/15 04:21:21;;;;;;;12.13;4.20;;;4.70;99.90;;;;;;5049791;23;20209;-94
2023/03/15 04:23:24;;;;;;;6.10;3.63;;;4.80;99.90;;;;;;5052634;23;20161;-94
2023/03/15 04:25:48;;;;;;;9.10;4.20;;;4.80;99.90;;;;;;5081511;23;20190;-95
2023/03/15 04:28:11;;;;;;;7.60;3.97;;;4.90;99.90;;;;;;5083292;23;20193;-93
2023/03/15 04:30:31;;;;;;;9.63;4.50;;;4.80;99.90;;;;;;5081976;23;20165;-91
2023/03/15 04:32:43;;;;;;;10.43;4.43;;;4.80;99.90;;;;;;5056366;23;20605;-93
2023/03/15 04:34:50;;;;;;;11.83;4.27;;;4.70;99.90;;;;;;5078228;23;20204;-92
2023/03/15 04:37:05;;;;;;;13.73;4.70;;;4.70;99.90;;;;;;5051992;23;20593;-92
2023/03/15 04:39:24;;;;;;;21.50;4.60;;;4.60;99.90;;;;;;5080604;23;20196;-92
2023/03/15 04:41:53;;;;;;;8.67;3.93;;;4.70;99.90;;;;;;5078173;23;20158;-92
2023/03/15 04:44:15;;;;;;;8.80;4.60;;;4.60;99.90;;;;;;5081636;23;20201;-92
2023/03/15 04:46:36;;;;;;;14.33;4.80;;;4.40;99.90;;;;;;5026920;23;20177;-96
2023/03/15 04:48:59;;;;;;;10.37;4.50;;;4.40;99.90;;;;;;5088520;23;20160;-92
2023/03/15 04:51:07;;;;;;;11.47;4.70;;;4.50;99.90;;;;;;5058230;23;20165;-94
2023/03/15 04:53:18;;;;;;;10.03;4.13;;;4.50;99.90;;;;;;5056009;23;20175;-89
2023/03/15 04:55:25;;;;;;;11.37;4.87;;;4.50;99.90;;;;;;5052326;23;20190;-90
2023/03/15 04:57:46;;;;;;;13.37;5.47;;;4.50;99.90;;;;;;5080260;23;20160;-91
2023/03/15 05:00:06;;;;;;;12.97;4.67;;;4.50;99.90;;;;;;5054086;23;20529;-89
2023/03/15 05:02:13;;;;;;;8.57;4.67;;;4.50;99.90;;;;;;5051503;23;20150;-95
2023/03/15 05:04:34;;;;;;;6.73;4.03;;;4.40;99.90;;;;;;5079010;23;20161;-90
2023/03/15 05:07:07;;;;;;;12.10;4.67;;;4.40;99.90;;;;;;5058426;23;20225;-89
2023/03/15 05:09:36;;;;;;;14.00;5.33;;;4.40;99.90;;;;;;5067304;23;20177;-89
2023/03/15 05:12:00;;;;;;;34.57;17.07;;;4.30;99.90;;;;;;5068551;23;20216;-90
2023/03/15 05:14:24;;;;;;;49.63;24.57;;;4.20;99.90;;;;;;5063442;23;20185;-90
2023/03/15 05:16:47;;;;;;;15.77;7.53;;;4.20;99.90;;;;;;5066455;23;20162;-94
2023/03/15 05:19:02;;;;;;;19.00;6.40;;;4.10;99.90;;;;;;5077049;23;20260;-94
2023/03/15 05:21:19;;;;;;;13.07;6.37;;;4.00;99.90;;;;;;5055562;23;20226;-94
2023/03/15 05:23:32;;;;;;;20.13;5.80;;;4.00;99.90;;;;;;5055930;23;20226;-91
2023/03/15 05:25:52;;;;;;;16.93;6.77;;;4.00;99.90;;;;;;5053283;23;20474;-89
2023/03/15 05:28:23;;;;;;;13.77;5.07;;;4.00;99.90;;;;;;5074714;23;20149;-89
2023/03/15 05:30:46;;;;;;;14.63;5.53;;;3.90;99.90;;;;;;5036560;23;20192;-92
2023/03/15 05:33:03;;;;;;;18.50;6.50;;;4.10;99.90;;;;;;5056683;23;20157;-91
2023/03/15 05:35:21;;;;;;;11.23;5.40;;;4.10;99.90;;;;;;5076461;23;20659;-90
2023/03/15 05:37:35;;;;;;;18.60;5.53;;;4.00;99.90;;;;;;5057358;23;20158;-91
2023/03/15 05:40:03;;;;;;;20.37;5.80;;;4.00;99.90;;;;;;5080489;23;20180;-90
2023/03/15 05:42:25;;;;;;;18.47;6.53;;;4.00;99.90;;;;;;5082461;23;20224;-94
2023/03/15 05:44:45;;;;;;;14.87;6.60;;;4.00;99.90;;;;;;5081197;23;20154;-91
2023/03/15 05:47:00;;;;;;;16.20;6.97;;;4.00;99.90;;;;;;5051618;23;20668;-90
2023/03/15 05:49:33;;;;;;;12.57;6.03;;;4.00;99.90;;;;;;5003704;23;20164;-90
2023/03/15 05:51:54;;;;;;;13.57;5.73;;;4.00;99.90;;;;;;5080083;23;20604;-93
2023/03/15 05:54:09;;;;;;;16.40;6.53;;;4.00;99.90;;;;;;5056267;23;20182;-92
2023/03/15 05:56:10;;;;;;;11.50;5.67;;;4.00;99.90;;;;;;5078347;23;20648;-91
2023/03/15 05:58:31;;;;;;;21.83;6.40;;;4.00;99.90;;;;;;5104553;23;20164;-94
2023/03/15 06:00:52;;;;;;;16.30;6.13;;;4.00;99.90;;;;;;5081491;23;20479;-89
2023/03/15 06:03:09;;;;;;;14.97;6.33;;;4.00;99.90;;;;;;5066118;23;20269;-92
2023/03/15 06:05:20;;;;;;;14.13;5.70;;;4.00;99.90;;;;;;5093927;23;20229;-92
2023/03/15 06:07:21;;;;;;;12.27;6.07;;;4.00;99.90;;;;;;5070251;23;20161;-92
2023/03/15 06:09:22;;;;;;;15.00;6.07;;;3.90;99.90;;;;;;5057775;23;20221;-91
2023/03/15 06:11:22;;;;;;;15.27;6.60;;;3.90;99.90;;;;;;5071070;23;20534;-91
2023/03/15 06:13:24;;;;;;;16.20;6.23;;;3.90;99.90;;;;;;5047406;23;20233;-92
2023/03/15 06:15:26;;;;;;;15.83;6.23;;;4.00;99.90;;;;;;5046605;23;20201;-91
2023/03/15 06:17:28;;;;;;;17.60;6.83;;;4.20;99.90;;;;;;5047506;23;20222;-91
2023/03/15 06:19:29;;;;;;;18.57;5.87;;;4.30;99.90;;;;;;5052727;23;20186;-91
2023/03/15 06:21:30;;;;;;;13.80;6.60;;;4.40;99.90;;;;;;5070810;23;20158;-91
2023/03/15 06:23:30;;;;;;;12.27;7.10;;;4.40;99.90;;;;;;5047643;23;20616;-92
2023/03/15 06:25:32;;;;;;;13.63;6.40;;;4.40;99.90;;;;;;5046569;23;20162;-91
2023/03/15 06:27:32;;;;;;;17.70;6.63;;;4.20;99.90;;;;;;5046644;23;20150;-91
2023/03/15 06:29:33;;;;;;;14.00;7.37;;;4.30;99.90;;;;;;5046016;23;20180;-91
2023/03/15 06:31:34;;;;;;;14.97;6.27;;;4.30;99.90;;;;;;5047612;23;20535;-96
2023/03/15 06:33:38;;;;;;;13.97;7.00;;;4.30;99.90;;;;;;5051611;23;20158;-91
2023/03/15 06:35:42;;;;;;;20.47;6.97;;;4.30;99.90;;;;;;5073498;23;20231;-95
2023/03/15 06:37:44;;;;;;;14.47;7.03;;;4.30;99.90;;;;;;5049090;23;20150;-95
2023/03/15 06:39:45;;;;;;;17.80;6.43;;;4.30;99.90;;;;;;5049265;23;20250;-95
2023/03/15 06:41:52;;;;;;;14.50;6.77;;;4.30;99.90;;;;;;5049654;23;20202;-94
2023/03/15 06:43:56;;;;;;;15.77;6.37;;;4.30;99.90;;;;;;5049594;23;20157;-95
2023/03/15 06:45:58;;;;;;;13.70;6.93;;;4.20;99.90;;;;;;5049933;23;20154;-95
2023/03/15 06:48:00;;;;;;;17.80;6.53;;;4.20;99.90;;;;;;5048745;23;20245;-94
2023/03/15 06:50:01;;;;;;;16.40;6.47;;;4.20;99.90;;;;;;5048734;23;20226;-95
2023/03/15 06:52:05;;;;;;;15.83;6.23;;;4.10;99.90;;;;;;5048457;23;20158;-95
2023/03/15 06:54:08;;;;;;;13.13;6.13;;;4.30;99.90;;;;;;5048696;23;20193;-94
2023/03/15 06:56:10;;;;;;;10.30;5.37;;;4.30;99.90;;;;;;5073448;23;20154;-94
2023/03/15 06:58:11;;;;;;;12.00;5.83;;;4.40;99.90;;;;;;5073304;23;20244;-95
2023/03/15 07:00:16;;;;;;;14.63;5.90;;;4.50;99.90;;;;;;5048532;23;20205;-96
2023/03/15 07:02:18;;;;;;;14.13;6.07;;;5.20;99.90;;;;;;5073211;23;20217;-95
2023/03/15 07:04:20;;;;;;;10.77;5.50;;;6.50;99.90;;;;;;5048783;23;20155;-96
2023/03/15 07:06:26;;;;;;;7.20;3.93;;;7.40;99.90;;;;;;5049585;23;20159;-96
2023/03/15 07:08:30;;;;;;;7.67;3.77;;;8.90;99.90;;;;;;5050196;23;20529;-95
2023/03/15 07:10:35;;;;;;;7.95;3.05;;;10.10;99.90;;;;;;5050627;23;20162;-95
2023/03/15 07:12:45;;;;;;;9.23;3.10;;;11.00;99.90;;;;;;5075790;23;20154;-95
2023/03/15 07:14:48;;;;;;;6.93;2.60;;;11.60;99.90;;;;;;5053225;23;20189;-96
2023/03/15 07:17:01;;;;;;;6.63;2.00;;;12.50;99.90;;;;;;5077760;23;20156;-96
2023/03/15 07:19:04;;;;;;;5.13;2.00;;;13.30;99.90;;;;;;5048831;23;20628;-95
2023/03/15 07:21:21;;;;;;;5.47;1.90;;;13.80;99.90;;;;;;5027989;23;20159;-95
2023/03/15 07:23:52;;;;;;;3.00;1.83;;;13.90;99.90;;;;;;5072699;23;20153;-95
2023/03/15 07:26:05;;;;;;;5.60;1.88;;;14.50;99.90;;;;;;5051003;23;20158;-96
2023/03/15 07:28:09;;;;;;;6.20;1.65;;;15.30;99.90;;;;;;5050262;23;20584;-96
2023/03/15 07:30:15;;;;;;;3.75;1.48;;;15.50;99.90;;;;;;5077283;23;20173;-96
2023/03/15 07:32:39;;;;;;;3.58;1.50;;;15.10;99.90;;;;;;5077911;23;20165;-96
2023/03/15 07:34:45;;;;;;;2.95;1.20;;;15.70;99.90;;;;;;5053637;23;20186;-95
2023/03/15 07:37:02;;;;;;;3.05;1.20;;;15.90;99.90;;;;;;5053913;23;20213;-95
2023/03/15 07:39:35;;;;;;;;;;;;;;;;;;;;;
2023/03/15 07:42:19;;;;;;;;;;;;;;;;;;;;;
2023/03/15 07:44:56;;;;;;;;;;;;;;;;;;;;;
2023/03/15 07:47:02;;;;;;;6.15;1.67;;;16.00;99.90;;;;;;5075877;23;20162;-95
2023/03/15 07:49:35;;;;;;;4.93;1.35;;;15.50;99.90;;;;;;5058434;23;20233;-96
2023/03/15 07:51:38;;;;;;;4.95;1.40;;;15.30;99.90;;;;;;5053618;23;20198;-95
2023/03/15 07:54:05;;;;;;;6.25;1.60;;;15.30;99.90;;;;;;5080930;23;20584;-95
2023/03/15 07:56:21;;;;;;;4.28;1.55;;;14.50;99.90;;;;;;5077046;23;20163;-95
2023/03/15 07:58:30;;;;;;;4.68;1.80;;;13.50;99.90;;;;;;5053007;23;20154;-95
2023/03/15 08:00:41;;;;;;;5.15;2.17;;;13.00;99.90;;;;;;5050931;23;20158;-95
2023/03/15 08:02:47;;;;;;;3.83;2.10;;;12.30;99.90;;;;;;5049100;23;20161;-96
2023/03/15 08:04:55;;;;;;;3.22;1.95;;;11.50;99.90;;;;;;5025642;23;20609;-94
2023/03/15 08:07:02;;;;;;;4.32;2.40;;;11.20;99.90;;;;;;5048640;23;20162;-95
2023/03/15 08:09:04;;;;;;;4.85;2.13;;;10.80;99.90;;;;;;5071771;23;20232;-95
2023/03/15 08:11:31;;;;;;;7.45;2.00;;;11.80;99.90;;;;;;5049642;23;20162;-96
2023/03/15 08:13:35;;;;;;;4.57;1.90;;;13.00;99.90;;;;;;5033970;23;20158;-96
2023/03/15 08:15:50;;;;;;;6.15;2.20;;;13.70;99.90;;;;;;5052731;23;20166;-94
2023/03/15 08:18:01;;;;;;;4.70;1.95;;;13.40;99.90;;;;;;5051468;23;20150;-95
2023/03/15 08:20:08;;;;;;;6.13;2.10;;;13.60;99.90;;;;;;5051147;23;20181;-96
2023/03/15 08:22:10;;;;;;;2.92;1.75;;;14.40;99.90;;;;;;5075133;23;20172;-95
2023/03/15 08:24:35;;;;;;;3.70;1.88;;;14.50;99.90;;;;;;5053436;23;20174;-95
2023/03/15 08:26:39;;;;;;;6.20;2.08;;;14.70;99.90;;;;;;5052017;23;20543;-95
2023/03/15 08:28:45;;;;;;;5.05;2.00;;;14.70;99.90;;;;;;5051477;23;20174;-95
2023/03/15 08:30:56;;;;;;;8.38;2.10;;;14.00;99.90;;;;;;5052126;23;20154;-95
2023/03/15 08:33:02;;;;;;;4.72;2.00;;;14.00;99.90;;;;;;5053421;23;20150;-95
2023/03/15 08:35:18;;;;;;;7.28;2.05;;;14.90;99.90;;;;;;5053100;23;20246;-95
2023/03/15 08:37:32;;;;;;;;;;;;;;;;;;;;;
2023/03/15 08:39:46;;;;;;;3.35;1.73;;;14.80;99.90;;;;;;5076274;23;20176;-96
2023/03/15 08:41:59;;;;;;;9.88;1.60;;;15.40;99.90;;;;;;5075379;23;20158;-95
2023/03/15 08:44:05;;;;;;;5.70;2.08;;;14.90;99.90;;;;;;5049673;23;20162;-96
2023/03/15 08:46:16;;;;;;;8.27;2.10;;;14.20;99.90;;;;;;5053221;23;20150;-95
2023/03/15 08:48:20;;;;;;;5.45;1.77;;;14.10;99.90;;;;;;5060575;23;20154;-96
2023/03/15 08:50:48;;;;;;;6.38;2.03;;;14.70;99.90;;;;;;5087784;23;20203;-95
2023/03/15 08:53:22;;;;;;;;;;;;;;;;;;;;;
2023/03/15 08:55:56;;;;;;;5.97;1.45;;;16.80;99.90;;;;;;5083427;23;20197;-95
2023/03/15 08:58:39;;;;;;;7.43;1.63;;;17.40;99.90;;;;;;5071685;23;20165;-95
2023/03/15 09:00:56;;;;;;;7.05;1.40;;;17.90;99.90;;;;;;5082547;23;20149;-96
2023/03/15 09:03:18;;;;;;;4.18;1.75;;;17.70;99.90;;;;;;5058426;23;20258;-95
2023/03/15 09:05:57;;;;;;;3.85;1.60;;;18.00;99.90;;;;;;5083809;23;20162;-95
2023/03/15 09:08:12;;;;;;;4.57;1.30;;;16.80;99.90;;;;;;5055818;23;20188;-95
2023/03/15 09:10:24;;;;;;;5.53;1.38;;;15.30;99.90;;;;;;5055387;23;20214;-96
2023/03/15 09:12:45;;;;;;;3.47;1.30;;;14.50;99.90;;;;;;5082530;23;20170;-95
2023/03/15 09:14:49;;;;;;;5.63;1.60;;;13.40;99.90;;;;;;5077802;23;20189;-95
2023/03/15 09:16:57;;;;;;;6.35;1.77;;;13.50;99.90;;;;;;5028249;23;20154;-96
2023/03/15 09:19:11;;;;;;;5.63;1.40;;;13.30;99.90;;;;;;5060321;23;20178;-95
2023/03/15 09:21:53;;;;;;;9.15;1.90;;;14.30;99.90;;;;;;5083433;23;20237;-95
2023/03/15 09:24:00;;;;;;;8.25;1.73;;;14.30;99.90;;;;;;5058542;23;20142;-95
2023/03/15 09:26:04;;;;;;;5.45;1.65;;;13.80;99.90;;;;;;5055519;23;20230;-95
2023/03/15 09:28:24;;;;;;;3.30;1.50;;;13.70;99.90;;;;;;5032551;23;20182;-95
2023/03/15 09:30:25;;;;;;;4.00;1.38;;;13.10;99.90;;;;;;5031514;23;20158;-95
2023/03/15 09:32:35;;;;;;;2.72;1.02;;;12.70;99.90;;;;;;5053666;23;20166;-95
2023/03/15 09:34:39;;;;;;;4.20;1.48;;;12.30;99.90;;;;;;5051378;23;20197;-95
2023/03/15 09:36:51;;;;;;;2.90;1.27;;;10.10;99.90;;;;;;5051979;23;20158;-95
2023/03/15 09:38:53;;;;;;;2.28;1.15;;;9.40;99.90;;;;;;5049212;23;20174;-95
2023/03/15 09:41:04;;;;;;;4.57;1.08;;;9.10;99.90;;;;;;5050771;23;20162;-94
2023/03/15 09:43:07;;;;;;;6.80;1.33;;;8.70;99.90;;;;;;5027871;23;20203;-94
2023/03/15 09:45:47;;;;;;;2.00;1.30;;;8.60;99.90;;;;;;5026332;23;20155;-95
2023/03/15 09:47:56;;;;;;;4.78;1.52;;;8.60;99.90;;;;;;5028479;23;20181;-94
2023/03/15 09:50:48;;;;;;;6.63;1.38;;;8.70;99.90;;;;;;5027124;23;20178;-95
2023/03/15 09:53:30;;;;;;;;;;;;;;;;;;;;;
2023/03/15 09:56:02;;;;;;;;;;;;;;;;;;;;;
2023/03/15 09:58:21;;;;;;;6.28;1.50;;;11.20;99.90;;;;;;5056646;23;20200;-95
2023/03/15 10:04:40;;;;;;;;;;;;;;;;;;;;;
2023/03/15 10:07:08;;;;;;;3.88;0.98;;;13.30;99.90;;;;;;5000248;23;20165;-95
2023/03/15 10:09:44;;;;;;;3.47;1.10;;;13.40;99.90;;;;;;5040974;23;20182;-95
2023/03/15 10:12:29;;;;;;;2.17;1.08;;;13.20;99.90;;;;;;5034707;23;20166;-95
2023/03/15 10:17:57;;;;;;;4.20;1.10;;;12.90;99.90;;;;;;5100433;23;20211;-94
2023/03/15 10:20:22;;;;;;;3.30;1.20;;;12.40;99.90;;;;;;5084346;23;20253;-93
2023/03/15 10:22:42;;;;;;;5.55;1.13;;;12.00;99.90;;;;;;5029820;23;20174;-94
2023/03/15 10:25:05;;;;;;;;;;;;;;;;;;;;;
2023/03/15 10:30:41;;;;;;;3.60;1.20;;;11.90;99.90;;;;;;5010084;23;20181;-95
2023/03/15 10:33:32;;;;;;;2.33;1.00;;;12.30;99.90;;;;;;5057531;23;20162;-95
2023/03/15 10:35:58;;;;;;;4.75;1.08;;;12.30;99.90;;;;;;5063788;23;20213;-95
2023/03/15 10:38:23;;;;;;;6.80;1.33;;;12.70;99.90;;;;;;5060590;23;20213;-94
2023/03/15 10:40:42;;;;;;;1.40;0.82;;;13.00;99.90;;;;;;5029568;23;20155;-94
2023/03/15 10:42:52;;;;;;;4.35;1.00;;;13.10;99.90;;;;;;5029661;23;20166;-94
2023/03/15 10:51:47;;;;;;;2.17;0.77;;;12.60;99.90;;;;;;5091689;23;20648;-92
2023/03/15 10:54:16;;;;;;;3.30;1.10;;;12.10;99.90;;;;;;5054403;23;20217;-90
2023/03/15 10:56:25;;;;;;;3.20;1.00;;;11.70;99.90;;;;;;5075998;23;20225;-91
2023/03/15 10:58:51;;;;;;;2.05;1.02;;;11.90;99.90;;;;;;5084201;23;20145;-92
2023/03/15 11:01:06;;;;;;;2.60;0.70;;;12.40;99.90;;;;;;5039243;23;20151;-89
2023/03/15 11:03:20;;;;;;;5.07;0.68;;;12.60;99.90;;;;;;5033853;23;20163;-91
2023/03/15 11:05:21;;;;;;;2.55;0.70;;;12.40;99.90;;;;;;5061703;23;20214;-90
2023/03/15 11:07:21;;;;;;;4.13;0.63;;;12.60;99.90;;;;;;5033986;23;20154;-91
2023/03/15 11:09:25;;;;;;;3.67;0.98;;;12.70;99.90;;;;;;5034385;23;20187;-90
2023/03/15 11:11:57;;;;;;;3.42;0.95;;;12.90;99.90;;;;;;5030316;23;20644;-90
2023/03/15 11:14:01;;;;;;;2.40;1.00;;;13.10;99.90;;;;;;5054443;23;20188;-91
2023/03/15 11:16:14;;;;;;;3.08;1.13;;;13.00;99.90;;;;;;5057808;23;20237;-92
2023/03/15 11:18:23;;;;;;;3.85;0.90;;;13.30;99.90;;;;;;5031268;23;20466;-91
2023/03/15 11:20:35;;;;;;;3.83;0.80;;;13.40;99.90;;;;;;5030923;23;20182;-90
2023/03/15 11:22:36;;;;;;;2.67;0.70;;;13.70;99.90;;;;;;5028894;23;20163;-90
2023/03/15 11:24:37;;;;;;;3.67;0.80;;;13.70;99.90;;;;;;5036825;23;20147;-90
2023/03/15 11:26:39;;;;;;;2.30;0.80;;;13.80;99.90;;;;;;5059566;23;20148;-90
2023/03/15 11:28:47;;;;;;;1.80;0.50;;;13.30;99.90;;;;;;5033480;23;20156;-90
2023/03/15 11:30:48;;;;;;;3.20;0.80;;;13.30;99.90;;;;;;5033909;23;20150;-91
2023/03/15 11:32:49;;;;;;;2.97;0.73;;;13.20;99.90;;;;;;5032954;23;20210;-91
2023/03/15 11:35:04;;;;;;;3.75;0.90;;;12.90;99.90;;;;;;5022682;23;20187;-91
2023/03/15 11:37:14;;;;;;;1.67;0.68;;;12.20;99.90;;;;;;5023995;23;20207;-90
2023/03/15 11:39:26;;;;;;;3.88;1.13;;;12.20;99.90;;;;;;5048319;23;20520;-91
2023/03/15 11:41:43;;;;;;;5.32;0.90;;;12.20;99.90;;;;;;5056746;23;20174;-90
2023/03/15 11:44:02;;;;;;;3.70;0.70;;;12.50;99.90;;;;;;5031858;23;20162;-90
2023/03/15 11:46:08;;;;;;;2.10;0.70;;;12.70;99.90;;;;;;5039050;23;20151;-91
2023/03/15 11:49:03;;;;;;;4.10;0.95;;;12.70;99.90;;;;;;5062006;23;20213;-90